sensor_id;sensor_type;location;lat;lon;timestamp;P1;durP1;ratioP1;P2;durP2;ratioP2
14665;SDS011;7420;53.574;10.040;2023-01-10T00:01:48;27.05;;;12.90;;
14665;SDS011;7420;53.574;10.040;2023-01-10T00:04:14;27.70;;;11.63;;
14665;SDS011;7420;53.574;10.040;2023-01-10T00:06:39;23.70;;;12.75;;
14665;SDS011;7420;53.574;10.040;2023-01-10T00:09:05;26.63;;;13.00;;
14665;SDS011;7420;53.574;10.040;2023-01-10T00:11:30;38.53;;;12.70;;
14665;SDS011;7420;53.574;10.040;2023-01-10T00:14:14;25.20;;;11.25;;
14665;SDS011;7420;53.574;10.040;2023-01-10T00:16:39;30.95;;;12.93;;
14665;SDS011;7420;53.574;10.040;2023-01-10T00:19:06;19.95;;;11.20;;
14665;SDS011;7420;53.574;10.040;2023-01-10T00:21:33;21.13;;;9.68;;
14665;SDS011;7420;53.574;10.040;2023-01-10T00:23:59;19.15;;;9.55;;
14665;SDS011;7420;53.574;10.040;2023-01-10T00:26:32;27.92;;;11.27;;
14665;SDS011;7420;53.574;10.040;2023-01-10T00:28:58;20.15;;;10.05;;
14665;SDS011;7420;53.574;10.040;2023-01-10T00:31:23;24.35;;;9.32;;
14665;SDS011;7420;53.574;10.040;2023-01-10T00:33:48;26.88;;;10.32;;
14665;SDS011;7420;53.574;10.040;2023-01-10T00:36:14;24.00;;;10.80;;
14665;SDS011;7420;53.574;10.040;2023-01-10T00:38:39;19.10;;;9.65;;
14665;SDS011;7420;53.574;10.040;2023-01-10T00:41:05;26.83;;;9.43;;
14665;SDS011;7420;53.574;10.040;2023-01-10T00:43:53;20.67;;;8.98;;
14665;SDS011;7420;53.574;10.040;2023-01-10T00:46:21;23.92;;;9.90;;
14665;SDS011;7420;53.574;10.040;2023-01-10T00:48:46;20.85;;;9.23;;
14665;SDS011;7420;53.574;10.040;2023-01-10T00:51:11;24.95;;;9.05;;
14665;SDS011;7420;53.574;10.040;2023-01-10T00:53:37;17.75;;;8.75;;
14665;SDS011;7420;53.574;10.040;2023-01-10T00:56:02;25.58;;;10.00;;
14665;SDS011;7420;53.574;10.040;2023-01-10T00:58:28;22.23;;;9.68;;
14665;SDS011;7420;53.574;10.040;2023-01-10T01:00:53;21.55;;;9.52;;
14665;SDS011;7420;53.574;10.040;2023-01-10T01:03:19;16.88;;;9.15;;
14665;SDS011;7420;53.574;10.040;2023-01-10T01:05:47;22.15;;;8.93;;
14665;SDS011;7420;53.574;10.040;2023-01-10T01:08:16;16.70;;;8.82;;
14665;SDS011;7420;53.574;10.040;2023-01-10T01:10:43;20.88;;;8.85;;
14665;SDS011;7420;53.574;10.040;2023-01-10T01:13:12;20.25;;;8.00;;
14665;SDS011;7420;53.574;10.040;2023-01-10T01:15:43;19.67;;;7.65;;
14665;SDS011;7420;53.574;10.040;2023-01-10T01:18:10;18.38;;;8.45;;
14665;SDS011;7420;53.574;10.040;2023-01-10T01:20:37;21.10;;;7.60;;
14665;SDS011;7420;53.574;10.040;2023-01-10T01:23:03;26.48;;;9.30;;
14665;SDS011;7420;53.574;10.040;2023-01-10T01:25:29;25.23;;;8.52;;
14665;SDS011;7420;53.574;10.040;2023-01-10T01:27:54;19.65;;;8.13;;
14665;SDS011;7420;53.574;10.040;2023-01-10T01:30:19;18.02;;;8.27;;
14665;SDS011;7420;53.574;10.040;2023-01-10T01:32:45;17.77;;;8.48;;
14665;SDS011;7420;53.574;10.040;2023-01-10T01:35:11;17.08;;;7.03;;
14665;SDS011;7420;53.574;10.040;2023-01-10T01:37:38;22.50;;;8.23;;
14665;SDS011;7420;53.574;10.040;2023-01-10T01:40:04;22.35;;;8.70;;
14665;SDS011;7420;53.574;10.040;2023-01-10T01:42:32;18.85;;;8.13;;
14665;SDS011;7420;53.574;10.040;2023-01-10T01:51:14;17.40;;;8.10;;
14665;SDS011;7420;53.574;10.040;2023-01-10T01:55:54;18.55;;;8.35;;
14665;SDS011;7420;53.574;10.040;2023-01-10T01:58:25;22.83;;;8.95;;
14665;SDS011;7420;53.574;10.040;2023-01-10T02:03:23;26.10;;;10.07;;
14665;SDS011;7420;53.574;10.040;2023-01-10T02:05:50;18.98;;;9.15;;
14665;SDS011;7420;53.574;10.040;2023-01-10T02:08:15;15.65;;;7.90;;
14665;SDS011;7420;53.574;10.040;2023-01-10T02:11:14;21.42;;;9.27;;
14665;SDS011;7420;53.574;10.040;2023-01-10T02:13:39;20.98;;;9.00;;
14665;SDS011;7420;53.574;10.040;2023-01-10T02:16:06;19.50;;;8.57;;
14665;SDS011;7420;53.574;10.040;2023-01-10T02:18:32;13.80;;;8.77;;
14665;SDS011;7420;53.574;10.040;2023-01-10T02:35:24;20.98;;;7.93;;
14665;SDS011;7420;53.574;10.040;2023-01-10T02:41:00;18.63;;;8.60;;
14665;SDS011;7420;53.574;10.040;2023-01-10T02:43:34;14.88;;;7.50;;
14665;SDS011;7420;53.574;10.040;2023-01-10T02:46:11;16.17;;;7.57;;
14665;SDS011;7420;53.574;10.040;2023-01-10T02:48:40;17.35;;;8.40;;
14665;SDS011;7420;53.574;10.040;2023-01-10T02:51:13;17.27;;;8.95;;
14665;SDS011;7420;53.574;10.040;2023-01-10T02:53:43;23.67;;;9.70;;
14665;SDS011;7420;53.574;10.040;2023-01-10T03:07:42;17.15;;;8.55;;
14665;SDS011;7420;53.574;10.040;2023-01-10T03:10:28;17.52;;;7.75;;
14665;SDS011;7420;53.574;10.040;2023-01-10T03:13:09;17.13;;;7.97;;
14665;SDS011;7420;53.574;10.040;2023-01-10T03:15:40;23.83;;;9.05;;
14665;SDS011;7420;53.574;10.040;2023-01-10T03:18:08;11.55;;;5.93;;
14665;SDS011;7420;53.574;10.040;2023-01-10T03:20:41;18.55;;;7.22;;
14665;SDS011;7420;53.574;10.040;2023-01-10T03:23:10;11.98;;;7.30;;
14665;SDS011;7420;53.574;10.040;2023-01-10T03:25:38;15.13;;;6.70;;
14665;SDS011;7420;53.574;10.040;2023-01-10T03:28:11;22.55;;;6.82;;
14665;SDS011;7420;53.574;10.040;2023-01-10T03:33:20;20.90;;;6.53;;
14665;SDS011;7420;53.574;10.040;2023-01-10T03:35:52;15.82;;;7.32;;
14665;SDS011;7420;53.574;10.040;2023-01-10T03:38:40;20.45;;;8.88;;
14665;SDS011;7420;53.574;10.040;2023-01-10T03:50:39;17.40;;;7.60;;
14665;SDS011;7420;53.574;10.040;2023-01-10T03:52:47;24.17;;;8.45;;
14665;SDS011;7420;53.574;10.040;2023-01-10T03:55:13;18.02;;;8.02;;
14665;SDS011;7420;53.574;10.040;2023-01-10T03:57:43;12.73;;;6.15;;
14665;SDS011;7420;53.574;10.040;2023-01-10T04:00:13;18.98;;;7.22;;
14665;SDS011;7420;53.574;10.040;2023-01-10T04:02:39;13.00;;;6.45;;
14665;SDS011;7420;53.574;10.040;2023-01-10T04:05:05;17.88;;;6.50;;
14665;SDS011;7420;53.574;10.040;2023-01-10T04:07:31;11.30;;;5.68;;
14665;SDS011;7420;53.574;10.040;2023-01-10T04:09:56;22.40;;;7.22;;
14665;SDS011;7420;53.574;10.040;2023-01-10T04:12:22;15.50;;;7.72;;
14665;SDS011;7420;53.574;10.040;2023-01-10T04:14:48;15.85;;;6.25;;
14665;SDS011;7420;53.574;10.040;2023-01-10T04:17:14;13.90;;;5.03;;
14665;SDS011;7420;53.574;10.040;2023-01-10T04:19:40;15.65;;;6.28;;
14665;SDS011;7420;53.574;10.040;2023-01-10T04:22:06;11.38;;;6.00;;
14665;SDS011;7420;53.574;10.040;2023-01-10T04:24:32;19.60;;;6.85;;
14665;SDS011;7420;53.574;10.040;2023-01-10T04:26:58;9.95;;;5.50;;
14665;SDS011;7420;53.574;10.040;2023-01-10T04:29:23;15.40;;;5.22;;
14665;SDS011;7420;53.574;10.040;2023-01-10T04:31:48;9.90;;;5.53;;
14665;SDS011;7420;53.574;10.040;2023-01-10T04:34:14;15.27;;;6.13;;
14665;SDS011;7420;53.574;10.040;2023-01-10T04:36:40;13.60;;;5.20;;
14665;SDS011;7420;53.574;10.040;2023-01-10T04:39:06;13.43;;;5.70;;
14665;SDS011;7420;53.574;10.040;2023-01-10T04:41:32;13.90;;;6.80;;
14665;SDS011;7420;53.574;10.040;2023-01-10T04:43:57;15.20;;;6.40;;
14665;SDS011;7420;53.574;10.040;2023-01-10T04:46:22;14.70;;;5.75;;
14665;SDS011;7420;53.574;10.040;2023-01-10T04:48:48;23.92;;;7.00;;
14665;SDS011;7420;53.574;10.040;2023-01-10T04:51:13;18.75;;;7.32;;
14665;SDS011;7420;53.574;10.040;2023-01-10T04:53:38;18.85;;;6.90;;
14665;SDS011;7420;53.574;10.040;2023-01-10T04:56:04;13.38;;;5.97;;
14665;SDS011;7420;53.574;10.040;2023-01-10T04:58:34;9.55;;;5.03;;
14665;SDS011;7420;53.574;10.040;2023-01-10T05:01:12;12.63;;;4.82;;
14665;SDS011;7420;53.574;10.040;2023-01-10T05:03:39;14.73;;;6.38;;
14665;SDS011;7420;53.574;10.040;2023-01-10T05:06:05;16.58;;;5.43;;
14665;SDS011;7420;53.574;10.040;2023-01-10T05:08:31;13.93;;;5.10;;
14665;SDS011;7420;53.574;10.040;2023-01-10T05:10:56;12.63;;;5.18;;
14665;SDS011;7420;53.574;10.040;2023-01-10T05:13:22;19.17;;;5.13;;
14665;SDS011;7420;53.574;10.040;2023-01-10T05:15:48;13.10;;;4.88;;
14665;SDS011;7420;53.574;10.040;2023-01-10T05:18:14;13.73;;;4.38;;
14665;SDS011;7420;53.574;10.040;2023-01-10T05:20:40;13.63;;;5.38;;
14665;SDS011;7420;53.574;10.040;2023-01-10T05:23:05;11.85;;;5.57;;
14665;SDS011;7420;53.574;10.040;2023-01-10T05:25:30;15.23;;;5.32;;
14665;SDS011;7420;53.574;10.040;2023-01-10T05:27:56;16.27;;;5.32;;
14665;SDS011;7420;53.574;10.040;2023-01-10T05:30:21;16.70;;;6.03;;
14665;SDS011;7420;53.574;10.040;2023-01-10T05:32:46;17.55;;;4.75;;
14665;SDS011;7420;53.574;10.040;2023-01-10T05:35:11;16.58;;;5.15;;
14665;SDS011;7420;53.574;10.040;2023-01-10T05:37:37;17.80;;;4.60;;
14665;SDS011;7420;53.574;10.040;2023-01-10T05:40:02;13.25;;;5.22;;
14665;SDS011;7420;53.574;10.040;2023-01-10T05:42:28;10.23;;;4.07;;
14665;SDS011;7420;53.574;10.040;2023-01-10T05:44:53;18.00;;;4.78;;
14665;SDS011;7420;53.574;10.040;2023-01-10T05:47:19;13.73;;;4.50;;
14665;SDS011;7420;53.574;10.040;2023-01-10T05:49:44;9.27;;;4.10;;
14665;SDS011;7420;53.574;10.040;2023-01-10T05:52:10;14.75;;;4.90;;
14665;SDS011;7420;53.574;10.040;2023-01-10T05:54:35;11.95;;;5.07;;
14665;SDS011;7420;53.574;10.040;2023-01-10T05:57:00;10.45;;;5.25;;
14665;SDS011;7420;53.574;10.040;2023-01-10T05:59:26;11.63;;;4.85;;
14665;SDS011;7420;53.574;10.040;2023-01-10T06:01:51;16.05;;;5.65;;
14665;SDS011;7420;53.574;10.040;2023-01-10T06:04:16;16.00;;;5.25;;
14665;SDS011;7420;53.574;10.040;2023-01-10T06:06:42;15.55;;;5.13;;
14665;SDS011;7420;53.574;10.040;2023-01-10T06:09:07;17.67;;;5.43;;
14665;SDS011;7420;53.574;10.040;2023-01-10T06:11:32;11.38;;;5.40;;
14665;SDS011;7420;53.574;10.040;2023-01-10T06:14:00;20.17;;;5.15;;
14665;SDS011;7420;53.574;10.040;2023-01-10T06:16:27;13.85;;;5.28;;
14665;SDS011;7420;53.574;10.040;2023-01-10T06:18:52;10.85;;;5.18;;
14665;SDS011;7420;53.574;10.040;2023-01-10T06:21:18;13.77;;;5.20;;
14665;SDS011;7420;53.574;10.040;2023-01-10T06:23:43;18.80;;;5.38;;
14665;SDS011;7420;53.574;10.040;2023-01-10T06:26:09;8.05;;;4.57;;
14665;SDS011;7420;53.574;10.040;2023-01-10T06:28:34;11.80;;;5.05;;
14665;SDS011;7420;53.574;10.040;2023-01-10T06:30:59;15.63;;;4.78;;
14665;SDS011;7420;53.574;10.040;2023-01-10T06:33:25;16.45;;;4.95;;
14665;SDS011;7420;53.574;10.040;2023-01-10T06:35:50;16.08;;;4.90;;
14665;SDS011;7420;53.574;10.040;2023-01-10T06:38:16;15.95;;;4.72;;
14665;SDS011;7420;53.574;10.040;2023-01-10T06:40:42;13.57;;;4.80;;
14665;SDS011;7420;53.574;10.040;2023-01-10T06:43:07;13.25;;;4.75;;
14665;SDS011;7420;53.574;10.040;2023-01-10T06:45:33;13.48;;;4.80;;
14665;SDS011;7420;53.574;10.040;2023-01-10T06:47:58;12.68;;;5.43;;
14665;SDS011;7420;53.574;10.040;2023-01-10T06:50:24;11.23;;;4.47;;
14665;SDS011;7420;53.574;10.040;2023-01-10T06:52:59;14.20;;;4.57;;
14665;SDS011;7420;53.574;10.040;2023-01-10T06:55:25;16.20;;;5.65;;
14665;SDS011;7420;53.574;10.040;2023-01-10T06:57:58;14.15;;;4.82;;
14665;SDS011;7420;53.574;10.040;2023-01-10T07:00:25;13.77;;;5.30;;
14665;SDS011;7420;53.574;10.040;2023-01-10T07:02:52;13.50;;;4.93;;
14665;SDS011;7420;53.574;10.040;2023-01-10T07:05:20;14.98;;;4.25;;
14665;SDS011;7420;53.574;10.040;2023-01-10T07:07:46;13.65;;;5.00;;
14665;SDS011;7420;53.574;10.040;2023-01-10T07:10:11;10.63;;;4.50;;
14665;SDS011;7420;53.574;10.040;2023-01-10T07:12:37;11.55;;;4.68;;
14665;SDS011;7420;53.574;10.040;2023-01-10T07:15:02;12.70;;;4.53;;
14665;SDS011;7420;53.574;10.040;2023-01-10T07:17:29;11.77;;;5.30;;
14665;SDS011;7420;53.574;10.040;2023-01-10T07:19:54;15.55;;;4.38;;
14665;SDS011;7420;53.574;10.040;2023-01-10T07:22:19;19.02;;;6.53;;
14665;SDS011;7420;53.574;10.040;2023-01-10T07:24:45;19.73;;;5.55;;
14665;SDS011;7420;53.574;10.040;2023-01-10T07:27:10;17.35;;;6.85;;
14665;SDS011;7420;53.574;10.040;2023-01-10T07:29:35;16.45;;;5.30;;
14665;SDS011;7420;53.574;10.040;2023-01-10T07:32:01;10.60;;;4.55;;
14665;SDS011;7420;53.574;10.040;2023-01-10T07:34:26;11.85;;;5.30;;
14665;SDS011;7420;53.574;10.040;2023-01-10T07:36:51;15.77;;;6.38;;
14665;SDS011;7420;53.574;10.040;2023-01-10T07:39:17;14.15;;;6.97;;
14665;SDS011;7420;53.574;10.040;2023-01-10T07:41:42;17.08;;;5.78;;
14665;SDS011;7420;53.574;10.040;2023-01-10T07:44:07;19.38;;;6.10;;
14665;SDS011;7420;53.574;10.040;2023-01-10T07:46:33;13.93;;;5.43;;
14665;SDS011;7420;53.574;10.040;2023-01-10T07:48:58;13.65;;;5.72;;
14665;SDS011;7420;53.574;10.040;2023-01-10T07:51:23;17.20;;;6.75;;
14665;SDS011;7420;53.574;10.040;2023-01-10T07:53:49;19.35;;;6.85;;
14665;SDS011;7420;53.574;10.040;2023-01-10T07:56:14;14.23;;;5.85;;
14665;SDS011;7420;53.574;10.040;2023-01-10T07:58:39;18.50;;;8.45;;
14665;SDS011;7420;53.574;10.040;2023-01-10T08:01:05;15.45;;;5.75;;
14665;SDS011;7420;53.574;10.040;2023-01-10T08:03:31;14.75;;;5.75;;
14665;SDS011;7420;53.574;10.040;2023-01-10T08:06:01;21.30;;;7.88;;
14665;SDS011;7420;53.574;10.040;2023-01-10T08:08:29;11.52;;;6.03;;
14665;SDS011;7420;53.574;10.040;2023-01-10T08:10:55;25.05;;;7.03;;
14665;SDS011;7420;53.574;10.040;2023-01-10T08:13:21;10.93;;;5.05;;
14665;SDS011;7420;53.574;10.040;2023-01-10T08:15:47;13.85;;;6.00;;
14665;SDS011;7420;53.574;10.040;2023-01-10T08:18:14;12.13;;;6.07;;
14665;SDS011;7420;53.574;10.040;2023-01-10T08:20:40;19.50;;;6.97;;
14665;SDS011;7420;53.574;10.040;2023-01-10T08:23:05;16.25;;;8.07;;
14665;SDS011;7420;53.574;10.040;2023-01-10T08:25:31;17.17;;;6.10;;
14665;SDS011;7420;53.574;10.040;2023-01-10T08:27:56;14.77;;;5.72;;
14665;SDS011;7420;53.574;10.040;2023-01-10T08:30:22;14.15;;;5.40;;
14665;SDS011;7420;53.574;10.040;2023-01-10T08:32:47;16.10;;;5.85;;
14665;SDS011;7420;53.574;10.040;2023-01-10T08:35:13;20.50;;;7.63;;
14665;SDS011;7420;53.574;10.040;2023-01-10T08:37:38;16.65;;;5.95;;
14665;SDS011;7420;53.574;10.040;2023-01-10T08:40:03;18.45;;;6.55;;
14665;SDS011;7420;53.574;10.040;2023-01-10T08:42:29;18.23;;;7.43;;
14665;SDS011;7420;53.574;10.040;2023-01-10T08:44:55;14.93;;;6.68;;
14665;SDS011;7420;53.574;10.040;2023-01-10T08:47:20;14.00;;;6.63;;
14665;SDS011;7420;53.574;10.040;2023-01-10T08:49:45;20.20;;;6.70;;
14665;SDS011;7420;53.574;10.040;2023-01-10T08:52:14;13.07;;;6.45;;
14665;SDS011;7420;53.574;10.040;2023-01-10T08:54:40;17.52;;;7.20;;
14665;SDS011;7420;53.574;10.040;2023-01-10T08:57:05;21.23;;;8.23;;
14665;SDS011;7420;53.574;10.040;2023-01-10T08:59:31;17.40;;;8.13;;
14665;SDS011;7420;53.574;10.040;2023-01-10T09:01:56;26.02;;;9.07;;
14665;SDS011;7420;53.574;10.040;2023-01-10T09:04:23;16.23;;;7.45;;
14665;SDS011;7420;53.574;10.040;2023-01-10T09:06:50;19.92;;;7.45;;
14665;SDS011;7420;53.574;10.040;2023-01-10T09:09:15;17.42;;;8.75;;
14665;SDS011;7420;53.574;10.040;2023-01-10T09:11:41;18.02;;;9.63;;
14665;SDS011;7420;53.574;10.040;2023-01-10T09:14:06;17.47;;;9.70;;
14665;SDS011;7420;53.574;10.040;2023-01-10T09:16:31;18.42;;;7.57;;
14665;SDS011;7420;53.574;10.040;2023-01-10T09:18:57;22.48;;;9.63;;
14665;SDS011;7420;53.574;10.040;2023-01-10T09:21:22;20.27;;;9.13;;
14665;SDS011;7420;53.574;10.040;2023-01-10T09:23:48;25.45;;;9.05;;
14665;SDS011;7420;53.574;10.040;2023-01-10T09:26:13;22.60;;;10.02;;
14665;SDS011;7420;53.574;10.040;2023-01-10T09:28:39;18.20;;;9.27;;
14665;SDS011;7420;53.574;10.040;2023-01-10T09:31:05;18.02;;;8.77;;
14665;SDS011;7420;53.574;10.040;2023-01-10T09:33:32;22.65;;;10.05;;
14665;SDS011;7420;53.574;10.040;2023-01-10T09:35:58;26.65;;;10.45;;
14665;SDS011;7420;53.574;10.040;2023-01-10T09:38:24;24.25;;;8.48;;
14665;SDS011;7420;53.574;10.040;2023-01-10T09:46:26;13.18;;;7.07;;
14665;SDS011;7420;53.574;10.040;2023-01-10T09:49:00;16.27;;;7.85;;
14665;SDS011;7420;53.574;10.040;2023-01-10T09:51:42;21.50;;;7.33;;
14665;SDS011;7420;53.574;10.040;2023-01-10T09:54:12;16.20;;;8.73;;
14665;SDS011;7420;53.574;10.040;2023-01-10T09:56:42;17.38;;;7.80;;
14665;SDS011;7420;53.574;10.040;2023-01-10T09:59:14;14.52;;;8.98;;
14665;SDS011;7420;53.574;10.040;2023-01-10T10:01:42;23.55;;;9.77;;
14665;SDS011;7420;53.574;10.040;2023-01-10T10:06:52;23.63;;;9.27;;
14665;SDS011;7420;53.574;10.040;2023-01-10T10:09:20;21.92;;;9.00;;
14665;SDS011;7420;53.574;10.040;2023-01-10T10:25:43;20.85;;;8.50;;
14665;SDS011;7420;53.574;10.040;2023-01-10T10:31:23;23.83;;;8.60;;
14665;SDS011;7420;53.574;10.040;2023-01-10T10:36:46;23.13;;;11.50;;
14665;SDS011;7420;53.574;10.040;2023-01-10T10:39:18;18.98;;;8.55;;
14665;SDS011;7420;53.574;10.040;2023-01-10T10:41:49;22.02;;;10.48;;
14665;SDS011;7420;53.574;10.040;2023-01-10T10:46:55;22.48;;;10.80;;
14665;SDS011;7420;53.574;10.040;2023-01-10T10:54:23;25.83;;;10.80;;
14665;SDS011;7420;53.574;10.040;2023-01-10T10:56:48;16.35;;;9.50;;
14665;SDS011;7420;53.574;10.040;2023-01-10T10:59:15;22.15;;;11.20;;
14665;SDS011;7420;53.574;10.040;2023-01-10T11:01:44;20.27;;;10.38;;
14665;SDS011;7420;53.574;10.040;2023-01-10T11:04:12;19.75;;;10.07;;
14665;SDS011;7420;53.574;10.040;2023-01-10T11:06:40;20.85;;;10.70;;
14665;SDS011;7420;53.574;10.040;2023-01-10T11:09:12;20.15;;;11.73;;
14665;SDS011;7420;53.574;10.040;2023-01-10T11:11:43;21.60;;;9.52;;
14665;SDS011;7420;53.574;10.040;2023-01-10T11:14:10;17.35;;;8.32;;
14665;SDS011;7420;53.574;10.040;2023-01-10T11:16:37;17.27;;;8.32;;
14665;SDS011;7420;53.574;10.040;2023-01-10T11:21:42;29.95;;;11.40;;
14665;SDS011;7420;53.574;10.040;2023-01-10T11:26:47;18.65;;;8.20;;
14665;SDS011;7420;53.574;10.040;2023-01-10T11:29:17;21.30;;;10.02;;
14665;SDS011;7420;53.574;10.040;2023-01-10T11:31:43;15.93;;;10.85;;
14665;SDS011;7420;53.574;10.040;2023-01-10T11:37:30;16.88;;;8.93;;
14665;SDS011;7420;53.574;10.040;2023-01-10T11:39:43;20.23;;;10.30;;
14665;SDS011;7420;53.574;10.040;2023-01-10T11:42:27;16.40;;;8.30;;
14665;SDS011;7420;53.574;10.040;2023-01-10T11:47:42;26.85;;;10.60;;
14665;SDS011;7420;53.574;10.040;2023-01-10T11:50:10;19.85;;;9.68;;
14665;SDS011;7420;53.574;10.040;2023-01-10T11:52:36;24.20;;;10.82;;
14665;SDS011;7420;53.574;10.040;2023-01-10T11:55:08;20.02;;;10.80;;
14665;SDS011;7420;53.574;10.040;2023-01-10T11:57:34;20.20;;;8.65;;
14665;SDS011;7420;53.574;10.040;2023-01-10T12:00:04;22.63;;;10.35;;
14665;SDS011;7420;53.574;10.040;2023-01-10T12:02:35;18.75;;;10.40;;
14665;SDS011;7420;53.574;10.040;2023-01-10T12:05:07;25.80;;;9.73;;
14665;SDS011;7420;53.574;10.040;2023-01-10T12:07:54;21.58;;;9.70;;
14665;SDS011;7420;53.574;10.040;2023-01-10T12:10:26;20.55;;;9.85;;
14665;SDS011;7420;53.574;10.040;2023-01-10T12:12:56;17.77;;;8.90;;
14665;SDS011;7420;53.574;10.040;2023-01-10T12:18:00;24.83;;;11.13;;
14665;SDS011;7420;53.574;10.040;2023-01-10T12:20:29;21.55;;;10.93;;
14665;SDS011;7420;53.574;10.040;2023-01-10T12:23:03;25.73;;;9.90;;
14665;SDS011;7420;53.574;10.040;2023-01-10T12:28:02;28.70;;;11.10;;
14665;SDS011;7420;53.574;10.040;2023-01-10T12:30:35;27.05;;;10.70;;
14665;SDS011;7420;53.574;10.040;2023-01-10T12:33:11;25.02;;;10.15;;
14665;SDS011;7420;53.574;10.040;2023-01-10T12:35:58;24.65;;;10.55;;
14665;SDS011;7420;53.574;10.040;2023-01-10T12:38:35;14.88;;;9.30;;
14665;SDS011;7420;53.574;10.040;2023-01-10T12:42:08;21.33;;;10.23;;
14665;SDS011;7420;53.574;10.040;2023-01-10T12:44:38;21.88;;;10.65;;
14665;SDS011;7420;53.574;10.040;2023-01-10T12:47:09;29.27;;;11.05;;
14665;SDS011;7420;53.574;10.040;2023-01-10T12:55:19;20.92;;;10.90;;
14665;SDS011;7420;53.574;10.040;2023-01-10T12:57:47;23.98;;;11.27;;
14665;SDS011;7420;53.574;10.040;2023-01-10T13:00:19;25.42;;;10.90;;
14665;SDS011;7420;53.574;10.040;2023-01-10T13:02:48;23.83;;;11.52;;
14665;SDS011;7420;53.574;10.040;2023-01-10T13:05:18;29.05;;;12.02;;
14665;SDS011;7420;53.574;10.040;2023-01-10T13:07:48;21.83;;;12.13;;
14665;SDS011;7420;53.574;10.040;2023-01-10T13:10:17;23.15;;;10.23;;
14665;SDS011;7420;53.574;10.040;2023-01-10T13:12:50;12.68;;;8.68;;
14665;SDS011;7420;53.574;10.040;2023-01-10T13:15:29;22.75;;;10.98;;
14665;SDS011;7420;53.574;10.040;2023-01-10T13:18:03;18.77;;;10.18;;
14665;SDS011;7420;53.574;10.040;2023-01-10T13:20:40;24.48;;;10.70;;
14665;SDS011;7420;53.574;10.040;2023-01-10T13:23:23;21.77;;;10.77;;
14665;SDS011;7420;53.574;10.040;2023-01-10T13:25:58;20.38;;;9.48;;
14665;SDS011;7420;53.574;10.040;2023-01-10T13:28:27;21.92;;;11.30;;
14665;SDS011;7420;53.574;10.040;2023-01-10T13:30:58;27.98;;;10.05;;
14665;SDS011;7420;53.574;10.040;2023-01-10T13:33:28;20.45;;;10.98;;
14665;SDS011;7420;53.574;10.040;2023-01-10T13:36:10;20.42;;;10.30;;
14665;SDS011;7420;53.574;10.040;2023-01-10T13:38:53;18.08;;;11.43;;
14665;SDS011;7420;53.574;10.040;2023-01-10T13:41:21;22.20;;;11.20;;
14665;SDS011;7420;53.574;10.040;2023-01-10T13:44:12;19.25;;;10.18;;
14665;SDS011;7420;53.574;10.040;2023-01-10T13:46:40;21.73;;;10.55;;
14665;SDS011;7420;53.574;10.040;2023-01-10T13:49:20;20.00;;;9.25;;
14665;SDS011;7420;53.574;10.040;2023-01-10T13:54:55;24.23;;;10.38;;
14665;SDS011;7420;53.574;10.040;2023-01-10T14:08:53;17.02;;;8.93;;
14665;SDS011;7420;53.574;10.040;2023-01-10T14:11:25;19.50;;;9.88;;
14665;SDS011;7420;53.574;10.040;2023-01-10T14:13:54;14.65;;;7.40;;
14665;SDS011;7420;53.574;10.040;2023-01-10T14:16:26;19.55;;;9.52;;
14665;SDS011;7420;53.574;10.040;2023-01-10T14:18:52;16.73;;;8.38;;
14665;SDS011;7420;53.574;10.040;2023-01-10T14:21:22;14.07;;;7.97;;
14665;SDS011;7420;53.574;10.040;2023-01-10T14:23:50;15.82;;;7.07;;
14665;SDS011;7420;53.574;10.040;2023-01-10T14:29:05;16.48;;;7.78;;
14665;SDS011;7420;53.574;10.040;2023-01-10T14:31:33;21.50;;;9.25;;
14665;SDS011;7420;53.574;10.040;2023-01-10T14:34:02;16.17;;;7.15;;
14665;SDS011;7420;53.574;10.040;2023-01-10T14:36:33;15.50;;;7.47;;
14665;SDS011;7420;53.574;10.040;2023-01-10T14:39:10;12.38;;;7.10;;
14665;SDS011;7420;53.574;10.040;2023-01-10T14:41:42;17.25;;;7.60;;
14665;SDS011;7420;53.574;10.040;2023-01-10T14:46:48;12.00;;;6.45;;
14665;SDS011;7420;53.574;10.040;2023-01-10T14:51:52;15.88;;;7.47;;
14665;SDS011;7420;53.574;10.040;2023-01-10T14:54:34;16.70;;;6.43;;
14665;SDS011;7420;53.574;10.040;2023-01-10T14:56:59;13.23;;;7.15;;
14665;SDS011;7420;53.574;10.040;2023-01-10T14:59:29;19.52;;;6.70;;
14665;SDS011;7420;53.574;10.040;2023-01-10T15:02:11;13.48;;;5.75;;
14665;SDS011;7420;53.574;10.040;2023-01-10T15:04:51;12.13;;;6.88;;
14665;SDS011;7420;53.574;10.040;2023-01-10T15:07:22;12.00;;;6.30;;
14665;SDS011;7420;53.574;10.040;2023-01-10T15:09:50;19.55;;;7.82;;
14665;SDS011;7420;53.574;10.040;2023-01-10T15:12:17;20.08;;;7.57;;
14665;SDS011;7420;53.574;10.040;2023-01-10T15:14:45;21.75;;;8.27;;
14665;SDS011;7420;53.574;10.040;2023-01-10T15:17:18;11.65;;;6.88;;
14665;SDS011;7420;53.574;10.040;2023-01-10T15:19:46;20.35;;;7.35;;
14665;SDS011;7420;53.574;10.040;2023-01-10T15:22:26;17.85;;;7.20;;
14665;SDS011;7420;53.574;10.040;2023-01-10T15:24:57;14.20;;;7.07;;
14665;SDS011;7420;53.574;10.040;2023-01-10T15:27:26;15.95;;;6.65;;
14665;SDS011;7420;53.574;10.040;2023-01-10T15:29:52;19.40;;;6.93;;
14665;SDS011;7420;53.574;10.040;2023-01-10T15:32:27;16.30;;;6.70;;
14665;SDS011;7420;53.574;10.040;2023-01-10T15:34:57;14.77;;;6.93;;
14665;SDS011;7420;53.574;10.040;2023-01-10T15:37:25;14.40;;;7.15;;
14665;SDS011;7420;53.574;10.040;2023-01-10T15:39:59;14.77;;;7.38;;
14665;SDS011;7420;53.574;10.040;2023-01-10T15:42:26;14.90;;;7.53;;
14665;SDS011;7420;53.574;10.040;2023-01-10T15:44:51;11.20;;;6.30;;
14665;SDS011;7420;53.574;10.040;2023-01-10T15:50:24;14.80;;;7.45;;
14665;SDS011;7420;53.574;10.040;2023-01-10T15:52:54;14.65;;;7.65;;
14665;SDS011;7420;53.574;10.040;2023-01-10T15:55:34;14.00;;;7.00;;
14665;SDS011;7420;53.574;10.040;2023-01-10T15:58:02;14.82;;;8.32;;
14665;SDS011;7420;53.574;10.040;2023-01-10T16:00:41;15.35;;;8.30;;
14665;SDS011;7420;53.574;10.040;2023-01-10T16:03:21;19.83;;;8.98;;
14665;SDS011;7420;53.574;10.040;2023-01-10T16:05:51;15.23;;;7.05;;
14665;SDS011;7420;53.574;10.040;2023-01-10T16:08:23;33.13;;;10.57;;
14665;SDS011;7420;53.574;10.040;2023-01-10T16:10:50;17.35;;;9.75;;
14665;SDS011;7420;53.574;10.040;2023-01-10T16:13:18;26.67;;;8.77;;
14665;SDS011;7420;53.574;10.040;2023-01-10T16:18:18;20.65;;;9.07;;
14665;SDS011;7420;53.574;10.040;2023-01-10T16:20:43;20.50;;;8.27;;
14665;SDS011;7420;53.574;10.040;2023-01-10T16:23:14;16.17;;;9.65;;
14665;SDS011;7420;53.574;10.040;2023-01-10T16:25:43;17.98;;;10.35;;
14665;SDS011;7420;53.574;10.040;2023-01-10T16:28:11;18.58;;;9.18;;
14665;SDS011;7420;53.574;10.040;2023-01-10T16:30:37;22.50;;;8.48;;
14665;SDS011;7420;53.574;10.040;2023-01-10T16:33:08;23.73;;;9.93;;
14665;SDS011;7420;53.574;10.040;2023-01-10T16:35:35;19.13;;;9.73;;
14665;SDS011;7420;53.574;10.040;2023-01-10T16:38:01;23.77;;;10.95;;
14665;SDS011;7420;53.574;10.040;2023-01-10T16:40:28;22.67;;;9.27;;
14665;SDS011;7420;53.574;10.040;2023-01-10T16:42:58;15.93;;;6.90;;
14665;SDS011;7420;53.574;10.040;2023-01-10T16:45:42;18.90;;;9.32;;
14665;SDS011;7420;53.574;10.040;2023-01-10T16:48:14;20.52;;;9.63;;
14665;SDS011;7420;53.574;10.040;2023-01-10T16:50:41;18.83;;;9.80;;
14665;SDS011;7420;53.574;10.040;2023-01-10T16:53:09;24.40;;;10.23;;
14665;SDS011;7420;53.574;10.040;2023-01-10T16:55:43;25.08;;;11.23;;
14665;SDS011;7420;53.574;10.040;2023-01-10T16:58:14;19.30;;;9.63;;
14665;SDS011;7420;53.574;10.040;2023-01-10T17:00:42;22.63;;;9.20;;